Time;durP1;ratioP1;P1;durP2;ratioP2;P2;SDS_P1;SDS_P2;PMS_P1;PMS_P2;Temp;Humidity;BMP_temperature;BMP_pressure;BME280_temperature;BME280_humidity;BME280_pressure;Samples;Min_cycle;Max_cycle;Signal;HPM_P1;HPM_P2
2021/07/19 00:01:39;;;;;;;1.57;1.10;;;29.80;99.90;;;;;;5002615;28;20206;-94
2021/07/19 00:04:27;;;;;;;2.30;1.10;;;29.90;99.90;;;;;;5005061;28;20230;-94
2021/07/19 00:07:02;;;;;;;1.70;1.20;;;30.00;99.90;;;;;;5004134;28;20215;-94
2021/07/19 00:09:35;;;;;;;2.13;1.30;;;29.90;99.90;;;;;;4985998;28;20218;-95
2021/07/19 00:12:09;;;;;;;3.97;1.40;;;30.10;99.90;;;;;;5001569;28;20206;-93
2021/07/19 00:14:45;;;;;;;1.37;1.20;;;30.00;99.90;;;;;;4984959;28;20873;-95
2021/07/19 00:17:22;;;;;;;3.20;1.33;;;29.80;99.90;;;;;;5003216;28;20245;-94
2021/07/19 00:19:54;;;;;;;2.00;1.40;;;29.80;99.90;;;;;;5003778;28;20701;-93
2021/07/19 00:22:25;;;;;;;2.27;1.10;;;29.70;99.90;;;;;;5004859;28;20202;-93
2021/07/19 00:24:58;;;;;;;1.77;1.10;;;29.50;99.90;;;;;;4988243;28;20273;-93
2021/07/19 00:27:33;;;;;;;1.80;1.07;;;29.40;99.90;;;;;;4988231;28;20214;-93
2021/07/19 00:30:06;;;;;;;3.43;1.50;;;29.50;99.90;;;;;;5002160;28;20297;-94
2021/07/19 00:32:42;;;;;;;2.90;1.13;;;29.50;99.90;;;;;;4986261;28;20217;-93
2021/07/19 00:35:14;;;;;;;2.03;1.23;;;29.40;99.90;;;;;;5002764;28;20210;-93
2021/07/19 00:37:49;;;;;;;1.20;1.10;;;29.40;99.90;;;;;;5002815;28;20214;-94
2021/07/19 00:40:25;;;;;;;4.10;1.37;;;29.40;99.90;;;;;;5001451;28;20210;-94
2021/07/19 00:43:03;;;;;;;3.17;1.57;;;29.40;99.90;;;;;;5003779;28;20291;-93
2021/07/19 00:45:35;;;;;;;3.70;1.60;;;29.40;99.90;;;;;;5002476;28;20230;-93
2021/07/19 00:48:07;;;;;;;3.97;1.50;;;29.30;99.90;;;;;;5003776;28;20214;-93
2021/07/19 00:50:41;;;;;;;1.37;1.20;;;29.00;99.90;;;;;;5022482;28;20667;-92
2021/07/19 00:53:16;;;;;;;3.10;1.40;;;29.00;99.90;;;;;;5022402;28;20251;-93
2021/07/19 00:55:51;;;;;;;2.20;1.23;;;28.90;99.90;;;;;;5020237;28;20201;-94
2021/07/19 00:58:35;;;;;;;2.50;1.20;;;28.70;99.90;;;;;;5014042;28;20248;-94
2021/07/19 01:01:09;;;;;;;2.80;1.77;;;28.50;99.90;;;;;;5002549;28;20214;-93
2021/07/19 01:03:46;;;;;;;1.73;1.20;;;28.60;99.90;;;;;;4965782;28;20203;-94
2021/07/19 01:06:21;;;;;;;2.43;1.50;;;28.90;99.90;;;;;;4984412;28;20307;-92
2021/07/19 01:08:55;;;;;;;2.80;1.60;;;29.50;99.90;;;;;;5003530;28;20224;-95
2021/07/19 01:11:29;;;;;;;1.43;1.30;;;30.00;99.90;;;;;;5002901;28;20261;-95
2021/07/19 01:14:03;;;;;;;2.27;1.50;;;30.50;99.70;;;;;;5001793;28;20215;-93
2021/07/19 01:16:37;;;;;;;3.37;1.50;;;30.60;99.10;;;;;;4999757;28;20206;-95
2021/07/19 01:19:12;;;;;;;2.30;1.40;;;30.30;98.80;;;;;;5002146;28;20230;-94
2021/07/19 01:22:18;;;;;;;1.70;1.43;;;30.50;99.40;;;;;;4984869;28;20618;-94
2021/07/19 01:24:57;;;;;;;1.87;1.47;;;30.50;98.20;;;;;;5013933;28;20226;-93
2021/07/19 01:28:12;;;;;;;1.33;1.23;;;30.60;97.30;;;;;;5017621;28;20201;-95
2021/07/19 01:30:47;;;;;;;1.30;1.17;;;30.40;97.10;;;;;;5004664;28;20216;-93
2021/07/19 01:33:21;;;;;;;1.93;1.50;;;30.50;96.80;;;;;;5016813;28;20217;-92
2021/07/19 01:35:55;;;;;;;2.20;1.40;;;30.30;96.80;;;;;;5020071;28;20224;-92
2021/07/19 01:38:37;;;;;;;2.13;1.47;;;30.80;96.60;;;;;;5007682;28;20264;-93
2021/07/19 01:41:17;;;;;;;3.30;1.23;;;30.60;97.50;;;;;;4988752;28;20210;-95
2021/07/19 01:43:51;;;;;;;1.87;1.20;;;30.90;96.40;;;;;;5016112;28;20206;-93
2021/07/19 01:46:26;;;;;;;1.77;1.30;;;30.80;96.00;;;;;;4999088;28;20260;-92
2021/07/19 01:49:04;;;;;;;2.73;1.20;;;30.40;96.00;;;;;;4982518;28;20268;-93
2021/07/19 01:51:37;;;;;;;2.03;1.23;;;30.70;95.80;;;;;;5003360;28;20238;-95
2021/07/19 01:54:12;;;;;;;3.43;1.37;;;30.50;96.00;;;;;;5001897;28;20210;-92
2021/07/19 01:56:57;;;;;;;1.30;1.20;;;30.40;95.50;;;;;;4986334;28;20249;-93
2021/07/19 01:59:44;;;;;;;2.90;1.10;;;30.40;95.50;;;;;;5006390;28;20202;-92
2021/07/19 02:02:51;;;;;;;2.70;1.37;;;30.10;95.50;;;;;;5005830;28;20210;-94
2021/07/19 02:05:31;;;;;;;1.57;1.10;;;30.10;95.30;;;;;;5002843;28;20254;-94
2021/07/19 02:08:05;;;;;;;1.90;1.20;;;29.60;95.50;;;;;;4985960;28;20216;-95
2021/07/19 02:10:38;;;;;;;2.80;1.37;;;29.00;96.80;;;;;;4980583;28;20236;-95
2021/07/19 02:13:13;;;;;;;4.97;1.60;;;29.00;96.30;;;;;;4983712;28;20682;-95
2021/07/19 02:15:46;;;;;;;2.97;1.27;;;28.80;97.00;;;;;;5002057;28;20205;-95
2021/07/19 02:18:25;;;;;;;3.07;1.40;;;28.80;98.00;;;;;;5014434;28;20221;-93
2021/07/19 02:21:19;;;;;;;1.43;1.13;;;28.60;97.70;;;;;;5024866;28;20265;-93
2021/07/19 02:23:55;;;;;;;2.30;1.37;;;28.30;98.00;;;;;;5024330;28;20209;-92
2021/07/19 02:26:37;;;;;;;1.63;1.03;;;27.70;98.80;;;;;;5024448;28;20359;-92
2021/07/19 02:29:09;;;;;;;1.90;1.10;;;27.20;99.60;;;;;;5023783;28;20209;-92
2021/07/19 02:31:42;;;;;;;1.60;1.10;;;26.60;99.90;;;;;;5004435;28;20210;-95
2021/07/19 02:34:17;;;;;;;1.57;1.00;;;26.40;99.90;;;;;;5022848;28;20213;-93
2021/07/19 02:36:54;;;;;;;1.73;0.90;;;26.10;99.90;;;;;;5023085;28;20244;-94
2021/07/19 02:39:31;;;;;;;2.10;1.10;;;25.80;99.90;;;;;;5023019;28;20228;-93
2021/07/19 02:42:05;;;;;;;2.07;1.10;;;25.50;99.90;;;;;;5004505;28;20240;-94
2021/07/19 02:44:38;;;;;;;2.60;1.10;;;25.30;99.90;;;;;;5005288;28;20213;-94
2021/07/19 02:47:16;;;;;;;2.60;1.13;;;25.10;99.90;;;;;;5004851;28;20546;-93
2021/07/19 02:49:53;;;;;;;2.60;1.03;;;24.90;99.90;;;;;;5022346;28;20216;-94
2021/07/19 02:52:26;;;;;;;3.20;1.53;;;24.80;99.90;;;;;;5004554;28;20241;-94
2021/07/19 02:55:00;;;;;;;2.10;1.20;;;24.60;99.90;;;;;;5017871;28;20232;-94
2021/07/19 02:57:49;;;;;;;2.20;1.30;;;24.50;99.90;;;;;;5002016;28;20230;-95
2021/07/19 03:00:23;;;;;;;2.20;1.20;;;24.40;99.90;;;;;;5003273;28;20428;-92
2021/07/19 03:03:05;;;;;;;2.03;1.00;;;24.20;99.90;;;;;;5002579;28;20213;-93
2021/07/19 03:05:48;;;;;;;2.43;1.30;;;24.20;99.90;;;;;;5002978;28;20610;-96
2021/07/19 03:08:25;;;;;;;1.97;1.17;;;24.00;99.90;;;;;;4991757;28;20218;-96
2021/07/19 03:10:59;;;;;;;1.60;1.20;;;23.90;99.90;;;;;;5002587;28;20214;-96
2021/07/19 03:13:35;;;;;;;1.93;1.10;;;23.70;99.90;;;;;;5013701;28;20233;-96
2021/07/19 03:16:23;;;;;;;1.77;1.13;;;23.50;99.90;;;;;;5014825;28;20202;-96
2021/07/19 03:18:56;;;;;;;1.83;1.10;;;23.30;99.90;;;;;;5013914;28;20225;-95
2021/07/19 03:22:08;;;;;;;2.00;1.23;;;23.20;99.90;;;;;;5014854;28;20222;-96
2021/07/19 03:24:47;;;;;;;2.03;1.43;;;23.10;99.90;;;;;;5016895;28;20206;-96
2021/07/19 03:27:19;;;;;;;1.83;1.20;;;22.90;99.90;;;;;;5000714;28;20194;-96
2021/07/19 03:29:54;;;;;;;3.33;1.30;;;22.80;99.90;;;;;;5033987;28;20244;-96
2021/07/19 03:35:14;;;;;;;2.47;1.27;;;22.50;99.90;;;;;;5230063;22;21557;-96
2021/07/19 03:37:52;;;;;;;2.93;1.33;;;22.40;99.90;;;;;;4999376;28;20238;-96
2021/07/19 03:43:37;;;;;;;2.23;1.60;;;21.90;99.90;;;;;;5014696;28;20232;-96
2021/07/19 03:46:10;;;;;;;1.83;1.30;;;21.50;99.90;;;;;;5016640;28;20265;-96
2021/07/19 03:48:44;;;;;;;2.20;1.30;;;21.30;99.90;;;;;;5018042;28;20190;-96
2021/07/19 03:51:18;;;;;;;2.50;1.30;;;21.20;99.90;;;;;;5004670;28;20207;-96
2021/07/19 03:53:54;;;;;;;2.60;1.43;;;21.20;99.90;;;;;;4994446;28;20640;-96
2021/07/19 04:02:28;;;;;;;1.60;1.30;;;21.00;99.90;;;;;;4995359;28;20329;-96
2021/07/19 04:05:16;;;;;;;2.47;1.17;;;21.00;99.90;;;;;;4990940;28;20667;-96
2021/07/19 04:07:50;;;;;;;3.00;1.37;;;20.90;99.90;;;;;;4992181;28;20214;-96
2021/07/19 04:10:25;;;;;;;1.67;1.30;;;20.80;99.90;;;;;;4999960;28;20207;-96
2021/07/19 04:13:07;;;;;;;2.37;1.30;;;20.70;99.90;;;;;;5013524;28;20190;-96
2021/07/19 04:16:08;;;;;;;1.97;1.23;;;20.60;99.90;;;;;;5003584;28;20273;-96
2021/07/19 04:18:46;;;;;;;1.83;1.40;;;20.40;99.90;;;;;;5011665;28;20218;-96
2021/07/19 04:21:34;;;;;;;1.90;1.30;;;20.40;99.90;;;;;;5008330;28;20258;-96
2021/07/19 04:24:10;;;;;;;3.50;1.50;;;20.30;99.90;;;;;;5004715;28;20233;-96
2021/07/19 04:26:47;;;;;;;1.30;1.20;;;20.20;99.90;;;;;;5007442;28;20718;-96
2021/07/19 04:29:22;;;;;;;2.20;1.00;;;20.10;99.90;;;;;;5011544;28;20214;-96
2021/07/19 04:31:58;;;;;;;1.23;1.00;;;20.00;99.90;;;;;;4989262;28;20306;-96
2021/07/19 04:34:33;;;;;;;2.20;1.37;;;20.00;99.90;;;;;;4967804;29;20215;-96
2021/07/19 04:37:14;;;;;;;1.57;0.90;;;20.00;99.90;;;;;;4967481;28;20219;-95
2021/07/19 04:39:53;;;;;;;2.30;1.30;;;19.80;99.90;;;;;;4979363;28;20219;-96
2021/07/19 04:42:32;;;;;;;1.77;1.20;;;19.80;99.90;;;;;;4969672;28;20215;-95
2021/07/19 04:45:05;;;;;;;1.50;1.30;;;19.80;99.90;;;;;;4983926;28;20211;-96
2021/07/19 04:50:30;;;;;;;4.60;1.07;;;19.60;99.90;;;;;;4986213;28;20676;-96
2021/07/19 04:55:57;;;;;;;2.27;1.40;;;19.50;99.90;;;;;;4985782;28;20223;-96
2021/07/19 04:58:34;;;;;;;2.07;1.13;;;19.30;99.90;;;;;;4990781;28;20229;-96
2021/07/19 05:01:13;;;;;;;1.90;0.90;;;19.30;99.90;;;;;;4995928;28;20206;-96
2021/07/19 05:03:59;;;;;;;2.57;1.30;;;19.20;99.90;;;;;;4983888;28;20210;-96
2021/07/19 05:06:32;;;;;;;5.33;2.70;;;19.20;99.90;;;;;;4984275;28;20302;-95
2021/07/19 05:09:04;;;;;;;6.60;2.83;;;19.10;99.90;;;;;;4984352;28;20629;-96
2021/07/19 05:14:34;;;;;;;1.80;1.40;;;19.00;99.90;;;;;;4983326;28;20211;-96
2021/07/19 05:17:12;;;;;;;2.90;1.40;;;19.00;99.90;;;;;;4985027;28;20720;-95
2021/07/19 05:19:47;;;;;;;3.53;1.20;;;18.90;99.90;;;;;;4970110;28;20221;-95
2021/07/19 05:22:21;;;;;;;1.83;1.10;;;18.80;99.90;;;;;;4983794;28;20206;-95
2021/07/19 05:24:59;;;;;;;1.60;1.00;;;18.80;99.90;;;;;;4983754;28;20214;-95
2021/07/19 05:27:32;;;;;;;1.37;1.27;;;18.70;99.90;;;;;;4967767;28;20321;-95
2021/07/19 05:30:09;;;;;;;2.27;1.00;;;18.70;99.90;;;;;;4984524;28;20221;-96
2021/07/19 05:32:40;;;;;;;2.00;0.90;;;18.60;99.90;;;;;;4983629;28;20236;-95
2021/07/19 05:35:12;;;;;;;3.20;1.10;;;18.50;99.90;;;;;;4971963;28;20206;-95
2021/07/19 05:37:44;;;;;;;2.20;0.90;;;18.50;99.90;;;;;;4988174;28;20214;-95
2021/07/19 05:40:18;;;;;;;1.87;0.87;;;18.40;99.90;;;;;;4985839;28;20223;-95
2021/07/19 05:42:52;;;;;;;2.27;0.93;;;18.50;99.90;;;;;;4980384;28;20253;-95
2021/07/19 05:45:45;;;;;;;3.13;0.83;;;18.40;99.90;;;;;;4983008;28;20608;-96
2021/07/19 05:48:18;;;;;;;2.00;0.90;;;18.40;99.90;;;;;;4987173;28;20289;-96
2021/07/19 05:50:57;;;;;;;1.13;0.80;;;18.40;99.90;;;;;;4988489;28;20659;-96
2021/07/19 05:53:34;;;;;;;2.33;0.70;;;18.40;99.90;;;;;;4988577;28;20206;-96
2021/07/19 05:56:12;;;;;;;1.30;1.10;;;18.30;99.90;;;;;;4988969;28;20211;-96
2021/07/19 05:59:03;;;;;;;1.63;0.90;;;18.30;99.90;;;;;;4952454;29;20211;-96
2021/07/19 06:01:49;;;;;;;0.87;0.67;;;18.20;99.90;;;;;;4967422;28;20199;-96
2021/07/19 06:04:24;;;;;;;1.50;0.63;;;18.10;99.90;;;;;;4970132;29;20219;-96
2021/07/19 06:06:56;;;;;;;1.97;0.80;;;18.10;99.90;;;;;;4969861;28;20253;-96
2021/07/19 06:09:31;;;;;;;0.70;0.70;;;18.10;99.90;;;;;;4972157;28;20238;-96
2021/07/19 06:12:10;;;;;;;1.27;0.87;;;18.00;99.90;;;;;;4986112;28;20280;-96
2021/07/19 06:14:45;;;;;;;1.57;0.90;;;17.90;99.90;;;;;;4973137;28;20683;-96
2021/07/19 06:17:21;;;;;;;1.53;0.90;;;17.80;99.90;;;;;;4990070;28;20241;-95
2021/07/19 06:19:55;;;;;;;1.17;0.70;;;17.80;99.90;;;;;;4997025;28;20210;-95
2021/07/19 06:22:28;;;;;;;2.73;0.93;;;17.80;99.90;;;;;;4997288;28;20205;-96
2021/07/19 06:25:01;;;;;;;2.53;1.00;;;17.70;99.90;;;;;;5009691;28;20245;-95
2021/07/19 06:27:36;;;;;;;1.37;0.87;;;17.70;99.90;;;;;;5006580;28;20370;-96
2021/07/19 06:30:09;;;;;;;1.43;0.80;;;17.60;99.90;;;;;;4979012;28;20213;-95
2021/07/19 06:32:44;;;;;;;2.50;0.87;;;17.50;99.90;;;;;;5000286;28;20210;-95
2021/07/19 06:35:16;;;;;;;2.47;0.90;;;17.50;99.90;;;;;;4996197;28;20222;-95
2021/07/19 06:37:49;;;;;;;1.60;0.73;;;17.50;99.90;;;;;;4991620;28;20241;-95
2021/07/19 06:40:21;;;;;;;2.00;0.80;;;17.40;99.90;;;;;;4958035;28;20238;-95
2021/07/19 06:42:55;;;;;;;0.97;0.80;;;17.40;99.90;;;;;;4992566;28;20359;-95
2021/07/19 06:45:27;;;;;;;2.77;0.70;;;17.30;99.90;;;;;;4983685;28;20660;-96
2021/07/19 06:48:01;;;;;;;1.03;0.70;;;17.20;99.90;;;;;;4971497;28;20228;-96
2021/07/19 06:50:32;;;;;;;1.77;0.80;;;17.20;99.90;;;;;;4995484;28;20222;-96
2021/07/19 06:53:04;;;;;;;1.70;0.80;;;17.10;99.90;;;;;;4983893;28;20210;-95
2021/07/19 06:55:39;;;;;;;1.73;1.10;;;17.10;99.90;;;;;;4985350;28;20242;-96
2021/07/19 06:58:11;;;;;;;3.53;1.00;;;17.00;99.90;;;;;;5002190;28;20224;-95
2021/07/19 07:00:44;;;;;;;3.23;0.90;;;16.90;99.90;;;;;;4993357;28;20215;-95
2021/07/19 07:03:26;;;;;;;2.20;1.03;;;16.90;99.90;;;;;;4971441;28;20216;-95
2021/07/19 07:06:04;;;;;;;1.10;1.00;;;16.80;99.90;;;;;;4980479;28;20266;-94
2021/07/19 07:08:35;;;;;;;2.53;0.87;;;16.70;99.90;;;;;;4993189;28;20234;-96
2021/07/19 07:11:06;;;;;;;5.77;1.10;;;16.70;99.90;;;;;;4997803;28;20207;-96
2021/07/19 07:13:40;;;;;;;2.63;1.00;;;16.70;99.90;;;;;;4985149;28;20728;-95
2021/07/19 07:16:13;;;;;;;3.27;0.87;;;16.60;99.90;;;;;;5006553;28;20210;-94
2021/07/19 07:18:48;;;;;;;2.60;1.03;;;16.60;99.90;;;;;;4988292;28;20215;-95
2021/07/19 07:21:21;;;;;;;5.23;1.13;;;16.50;99.90;;;;;;4956122;28;20569;-94
2021/07/19 07:24:04;;;;;;;1.03;0.70;;;16.40;99.90;;;;;;4993030;28;20219;-96
2021/07/19 07:26:38;;;;;;;1.53;0.77;;;16.40;99.90;;;;;;5000163;28;20205;-95
2021/07/19 07:29:12;;;;;;;2.77;0.80;;;16.40;99.90;;;;;;5012261;28;20209;-96
2021/07/19 07:31:57;;;;;;;1.90;0.80;;;16.30;99.90;;;;;;4996980;28;20203;-95
2021/07/19 07:34:31;;;;;;;3.50;0.97;;;16.20;99.90;;;;;;4996683;28;20238;-96
2021/07/19 07:37:03;;;;;;;1.33;0.90;;;16.20;99.90;;;;;;5008433;28;20602;-95
2021/07/19 07:39:42;;;;;;;3.00;0.90;;;16.20;99.90;;;;;;4999294;28;20210;-95
2021/07/19 07:42:18;;;;;;;5.10;1.17;;;16.20;99.90;;;;;;5006272;28;20210;-96
2021/07/19 07:44:53;;;;;;;2.33;0.80;;;16.10;99.90;;;;;;5007914;28;20225;-95
2021/07/19 07:47:26;;;;;;;4.40;1.47;;;16.00;99.90;;;;;;5007768;28;20268;-96
2021/07/19 07:50:03;;;;;;;2.57;1.20;;;16.10;99.90;;;;;;4998057;28;20219;-96
2021/07/19 07:52:35;;;;;;;2.20;1.00;;;16.10;99.90;;;;;;4991996;28;20222;-95
2021/07/19 07:55:09;;;;;;;1.93;0.90;;;16.00;99.90;;;;;;4998156;28;20214;-96
2021/07/19 07:57:42;;;;;;;1.47;0.87;;;15.90;99.90;;;;;;4999361;28;20213;-95
2021/07/19 08:00:26;;;;;;;2.23;1.10;;;15.90;99.90;;;;;;4996002;28;20245;-95
2021/07/19 08:03:17;;;;;;;3.13;0.93;;;15.90;99.90;;;;;;4985400;28;20214;-95
2021/07/19 08:06:04;;;;;;;2.97;1.00;;;15.90;99.90;;;;;;4988110;28;20225;-95
2021/07/19 08:08:38;;;;;;;7.17;1.27;;;15.80;99.90;;;;;;4985166;28;20292;-95
2021/07/19 08:11:18;;;;;;;2.80;1.00;;;15.70;99.90;;;;;;4986299;28;20233;-96
2021/07/19 08:13:51;;;;;;;1.70;0.90;;;15.70;99.90;;;;;;4987069;28;20230;-96
2021/07/19 08:16:23;;;;;;;2.47;1.00;;;15.70;99.90;;;;;;4988465;28;20217;-96
2021/07/19 08:18:56;;;;;;;4.87;1.30;;;15.60;99.90;;;;;;4989463;28;20270;-96
2021/07/19 08:21:31;;;;;;;2.83;1.17;;;15.60;99.90;;;;;;4969345;29;20627;-96
2021/07/19 08:24:04;;;;;;;3.20;1.00;;;15.50;99.90;;;;;;4967233;29;20243;-96
2021/07/19 08:26:38;;;;;;;2.10;1.20;;;15.50;99.90;;;;;;4968031;28;20204;-96
2021/07/19 08:29:09;;;;;;;1.87;1.17;;;15.50;99.90;;;;;;4988529;28;20242;-96
2021/07/19 08:32:07;;;;;;;3.73;1.10;;;15.50;99.90;;;;;;4981635;28;20207;-96
2021/07/19 08:34:40;;;;;;;1.90;1.00;;;15.50;99.90;;;;;;4971407;28;20226;-96
2021/07/19 08:37:16;;;;;;;3.07;1.00;;;15.40;99.90;;;;;;4994400;28;20205;-96
2021/07/19 08:39:49;;;;;;;1.33;1.13;;;15.40;99.90;;;;;;4997610;28;20210;-96
2021/07/19 08:42:36;;;;;;;3.37;1.17;;;15.40;99.90;;;;;;4995978;28;20216;-96
2021/07/19 08:45:12;;;;;;;4.10;1.20;;;15.30;99.90;;;;;;4988628;28;20215;-96
2021/07/19 08:47:52;;;;;;;2.40;1.20;;;15.30;99.90;;;;;;4988319;28;20261;-96
2021/07/19 08:50:25;;;;;;;3.37;1.10;;;15.30;99.90;;;;;;4988944;28;20230;-96
2021/07/19 08:52:59;;;;;;;3.63;1.10;;;15.20;99.90;;;;;;4992316;28;20221;-96
2021/07/19 08:55:35;;;;;;;3.57;0.90;;;15.20;99.90;;;;;;4996681;28;20215;-96
2021/07/19 08:58:14;;;;;;;1.93;1.00;;;15.20;99.90;;;;;;4993501;28;20194;-96
2021/07/19 09:00:46;;;;;;;4.80;1.17;;;15.20;99.90;;;;;;4994414;28;20218;-96
2021/07/19 09:03:19;;;;;;;2.13;1.00;;;15.20;99.90;;;;;;5007684;28;20201;-95
2021/07/19 09:08:57;;;;;;;3.60;1.07;;;15.00;99.90;;;;;;4963787;29;20254;-96
2021/07/19 09:11:28;;;;;;;6.60;1.20;;;15.00;99.90;;;;;;4979593;28;20229;-96
2021/07/19 09:14:14;;;;;;;2.97;1.10;;;14.90;99.90;;;;;;4985405;28;20257;-95
2021/07/19 09:16:48;;;;;;;4.17;1.53;;;15.00;99.90;;;;;;4984630;28;20624;-95
2021/07/19 09:19:27;;;;;;;1.93;1.00;;;14.90;99.90;;;;;;4973269;28;20213;-95
2021/07/19 09:22:02;;;;;;;4.17;1.30;;;14.80;99.90;;;;;;4985724;28;20274;-94
2021/07/19 09:24:38;;;;;;;2.57;1.23;;;14.80;99.90;;;;;;4982130;28;20214;-95
2021/07/19 09:27:10;;;;;;;1.53;0.80;;;14.70;99.90;;;;;;4984912;28;20706;-95
2021/07/19 09:29:51;;;;;;;3.03;1.17;;;14.70;99.90;;;;;;4984875;28;20234;-96
2021/07/19 09:32:23;;;;;;;2.23;1.20;;;14.70;99.90;;;;;;4998006;28;20306;-96
2021/07/19 09:34:54;;;;;;;2.97;1.37;;;14.70;99.90;;;;;;4984537;28;20211;-95
2021/07/19 09:37:31;;;;;;;2.50;1.00;;;14.70;99.90;;;;;;4985205;28;20691;-96
2021/07/19 09:40:11;;;;;;;3.80;1.20;;;14.60;99.90;;;;;;4984279;28;20241;-96
2021/07/19 09:42:46;;;;;;;2.83;0.97;;;14.60;99.90;;;;;;4971873;28;20239;-95
2021/07/19 09:45:28;;;;;;;3.60;1.13;;;14.60;99.90;;;;;;4962595;28;20273;-96
2021/07/19 09:50:54;;;;;;;1.63;1.37;;;14.60;99.90;;;;;;4999703;28;20238;-96
2021/07/19 09:53:33;;;;;;;2.63;1.23;;;14.50;99.90;;;;;;4963433;28;20265;-96
2021/07/19 09:56:23;;;;;;;1.70;1.03;;;14.40;99.90;;;;;;4980450;28;20211;-95
2021/07/19 09:59:08;;;;;;;3.83;1.30;;;14.40;99.90;;;;;;4986583;28;20239;-96
2021/07/19 10:01:45;;;;;;;2.17;1.20;;;14.40;99.90;;;;;;4983038;28;20215;-96
2021/07/19 10:07:26;;;;;;;3.63;1.20;;;14.30;99.90;;;;;;5003586;28;20213;-96
2021/07/19 10:10:06;;;;;;;2.13;1.10;;;14.40;99.90;;;;;;4986401;28;20236;-96
2021/07/19 10:12:41;;;;;;;3.53;1.47;;;14.40;99.90;;;;;;5003339;28;20556;-96
2021/07/19 10:15:35;;;;;;;2.57;1.20;;;14.30;99.90;;;;;;4984786;28;20209;-95
2021/07/19 10:18:13;;;;;;;1.60;1.23;;;14.30;99.90;;;;;;4985307;28;20262;-96
2021/07/19 10:20:48;;;;;;;1.90;1.10;;;14.30;99.90;;;;;;4967909;28;20218;-96
2021/07/19 10:23:23;;;;;;;3.23;0.90;;;14.30;99.90;;;;;;4987772;28;20206;-96
2021/07/19 10:26:00;;;;;;;2.60;1.30;;;14.30;99.90;;;;;;4987797;28;20199;-96
2021/07/19 10:28:45;;;;;;;2.93;1.30;;;14.30;99.90;;;;;;4988664;28;20215;-96
2021/07/19 10:31:22;;;;;;;2.57;1.20;;;14.30;99.90;;;;;;4986700;28;20203;-96
2021/07/19 10:33:58;;;;;;;2.17;1.17;;;14.20;99.90;;;;;;4985877;28;20203;-96
2021/07/19 10:36:34;;;;;;;2.20;1.20;;;14.10;99.90;;;;;;4987825;28;20256;-96
2021/07/19 10:39:22;;;;;;;3.57;1.47;;;14.10;99.90;;;;;;4988631;28;20210;-96
2021/07/19 10:42:05;;;;;;;1.23;0.90;;;14.10;99.90;;;;;;4991117;28;20187;-96
2021/07/19 10:44:52;;;;;;;7.23;1.30;;;14.10;99.90;;;;;;4997014;28;20215;-96
2021/07/19 10:47:26;;;;;;;2.00;0.97;;;14.10;99.90;;;;;;4996687;28;20210;-96
2021/07/19 10:49:59;;;;;;;2.43;1.27;;;14.10;99.90;;;;;;4986531;28;20234;-96
2021/07/19 10:52:35;;;;;;;2.40;1.20;;;14.10;99.90;;;;;;4988329;28;20267;-96
2021/07/19 10:55:08;;;;;;;3.50;1.00;;;14.10;99.90;;;;;;4988178;28;20656;-94
2021/07/19 10:57:50;;;;;;;3.27;1.00;;;14.10;99.90;;;;;;4995133;28;20251;-94
2021/07/19 11:00:24;;;;;;;2.90;1.00;;;14.00;99.90;;;;;;4985836;28;20204;-96
2021/07/19 11:03:06;;;;;;;7.70;1.30;;;14.00;99.90;;;;;;4972785;28;20242;-96
2021/07/19 11:05:40;;;;;;;2.80;1.10;;;14.00;99.90;;;;;;4968737;29;20211;-96
2021/07/19 11:08:23;;;;;;;1.87;0.90;;;13.90;99.90;;;;;;4979762;28;20211;-96
2021/07/19 11:10:59;;;;;;;2.20;1.00;;;13.90;99.90;;;;;;4985767;28;20230;-95
2021/07/19 11:13:34;;;;;;;3.80;1.17;;;13.90;99.90;;;;;;4991732;28;20233;-96
2021/07/19 11:16:18;;;;;;;2.77;1.33;;;13.90;99.90;;;;;;4977332;28;20656;-96
2021/07/19 11:18:57;;;;;;;2.93;1.20;;;13.80;99.90;;;;;;4969903;28;20234;-96
2021/07/19 11:21:30;;;;;;;2.07;1.20;;;13.80;99.90;;;;;;4988111;28;20659;-96
2021/07/19 11:24:10;;;;;;;2.03;1.23;;;13.80;99.90;;;;;;4989213;28;20226;-96
2021/07/19 11:26:51;;;;;;;2.37;1.10;;;13.80;99.90;;;;;;4986345;28;20282;-96
2021/07/19 11:29:36;;;;;;;3.37;0.90;;;13.80;99.90;;;;;;4986199;28;20247;-96
2021/07/19 11:32:22;;;;;;;3.00;1.07;;;13.80;99.90;;;;;;4987077;28;20238;-96
2021/07/19 11:34:53;;;;;;;2.90;1.17;;;13.80;99.90;;;;;;5006627;28;20244;-96
2021/07/19 11:37:35;;;;;;;2.23;1.10;;;13.80;99.90;;;;;;5006789;28;20233;-95
2021/07/19 11:40:08;;;;;;;2.47;1.00;;;13.70;99.90;;;;;;5005770;28;20214;-96
2021/07/19 11:42:55;;;;;;;2.07;1.10;;;13.70;99.90;;;;;;4996893;28;20238;-96
2021/07/19 11:45:28;;;;;;;2.00;0.97;;;13.70;99.90;;;;;;4966986;29;20212;-96
2021/07/19 11:48:08;;;;;;;2.93;1.10;;;13.60;99.90;;;;;;4964930;28;20562;-96
2021/07/19 11:50:41;;;;;;;3.67;1.60;;;13.60;99.90;;;;;;4957449;28;20265;-96
2021/07/19 11:53:21;;;;;;;2.57;1.30;;;13.60;99.90;;;;;;5003361;28;20203;-96
2021/07/19 11:56:01;;;;;;;2.07;1.20;;;13.60;99.90;;;;;;5006183;28;20220;-96
2021/07/19 11:58:36;;;;;;;2.47;1.27;;;13.50;99.90;;;;;;5003157;28;20249;-96
2021/07/19 12:01:09;;;;;;;2.80;1.10;;;13.50;99.90;;;;;;4985722;28;20238;-96
2021/07/19 12:06:54;;;;;;;3.23;1.50;;;13.50;99.90;;;;;;4986547;28;20257;-95
2021/07/19 12:09:25;;;;;;;3.33;1.10;;;13.40;99.90;;;;;;4986783;28;20250;-96
2021/07/19 12:11:57;;;;;;;2.20;1.33;;;13.40;99.90;;;;;;4986557;28;20640;-95
2021/07/19 12:14:28;;;;;;;1.63;0.90;;;13.40;99.90;;;;;;4986553;28;20231;-96
2021/07/19 12:17:04;;;;;;;3.30;1.10;;;13.40;99.90;;;;;;5002871;28;20222;-96
2021/07/19 12:19:39;;;;;;;2.10;1.10;;;13.30;99.90;;;;;;4986273;28;20258;-96
2021/07/19 12:22:11;;;;;;;1.50;1.03;;;13.30;99.90;;;;;;4986672;28;20210;-96
2021/07/19 12:24:43;;;;;;;2.10;1.33;;;13.30;99.90;;;;;;4988317;28;20274;-96
2021/07/19 12:27:22;;;;;;;4.27;1.00;;;13.30;99.90;;;;;;4985742;28;20207;-96
2021/07/19 12:30:05;;;;;;;3.57;1.20;;;13.30;99.90;;;;;;4988363;28;20322;-96
2021/07/19 12:32:37;;;;;;;4.17;1.20;;;13.30;99.90;;;;;;4984021;28;20207;-96
2021/07/19 12:35:19;;;;;;;2.90;1.13;;;13.20;99.90;;;;;;4991626;28;20300;-96
2021/07/19 12:37:59;;;;;;;3.93;1.30;;;13.20;99.90;;;;;;5007364;28;20580;-96
2021/07/19 12:40:37;;;;;;;3.70;1.10;;;13.20;99.90;;;;;;5002359;28;20210;-96
2021/07/19 12:43:13;;;;;;;2.73;1.10;;;13.20;99.90;;;;;;4985750;28;20218;-96
2021/07/19 12:45:46;;;;;;;2.77;1.07;;;13.20;99.90;;;;;;4986525;28;20215;-96
2021/07/19 12:48:18;;;;;;;1.70;1.30;;;13.20;99.90;;;;;;4971530;28;20233;-96
2021/07/19 12:51:04;;;;;;;3.37;1.07;;;13.20;99.90;;;;;;4987579;28;20239;-96
2021/07/19 12:53:39;;;;;;;2.37;1.07;;;13.20;99.90;;;;;;4985265;28;20210;-96
2021/07/19 12:56:12;;;;;;;3.37;1.43;;;13.20;99.90;;;;;;4986373;28;20656;-96
2021/07/19 12:58:58;;;;;;;2.97;1.23;;;13.20;99.90;;;;;;4986930;28;20238;-95
2021/07/19 13:01:35;;;;;;;2.00;1.27;;;13.20;99.90;;;;;;4985899;28;20230;-96
2021/07/19 13:04:09;;;;;;;2.83;1.27;;;13.10;99.90;;;;;;4983398;28;20206;-96
2021/07/19 13:06:45;;;;;;;3.13;1.33;;;13.20;99.90;;;;;;4984837;28;20207;-96
2021/07/19 13:09:33;;;;;;;3.80;1.47;;;13.20;99.90;;;;;;4984122;28;20218;-96
2021/07/19 13:12:38;;;;;;;3.87;1.60;;;13.20;99.90;;;;;;4953546;29;20231;-95
2021/07/19 13:15:13;;;;;;;5.43;1.87;;;13.20;99.90;;;;;;4975726;29;20284;-95
2021/07/19 13:17:50;;;;;;;4.00;1.50;;;13.30;99.90;;;;;;4977735;29;20210;-94
2021/07/19 13:20:25;;;;;;;3.77;1.53;;;13.30;99.90;;;;;;5002968;28;20229;-96
2021/07/19 13:23:18;;;;;;;2.77;1.40;;;13.40;99.90;;;;;;4993282;28;20226;-95
2021/07/19 13:25:52;;;;;;;1.87;1.50;;;13.40;99.90;;;;;;5008905;28;20237;-95
2021/07/19 13:28:25;;;;;;;4.47;1.40;;;13.40;99.90;;;;;;4986434;28;20220;-96
2021/07/19 13:31:10;;;;;;;2.27;1.40;;;13.40;99.90;;;;;;4987924;28;20237;-95
2021/07/19 13:36:45;;;;;;;1.93;1.40;;;13.40;99.90;;;;;;4984809;28;20267;-95
2021/07/19 13:42:16;;;;;;;2.20;1.30;;;13.50;99.90;;;;;;4994179;28;20222;-95
2021/07/19 13:44:53;;;;;;;1.60;1.30;;;13.60;99.90;;;;;;4987764;28;20242;-94
2021/07/19 13:47:27;;;;;;;2.40;1.40;;;13.60;99.90;;;;;;4986010;28;20222;-95
2021/07/19 13:50:01;;;;;;;3.07;1.07;;;13.60;99.90;;;;;;4987634;28;20207;-95
2021/07/19 13:52:32;;;;;;;2.47;1.20;;;13.70;99.90;;;;;;4990501;28;20225;-96
2021/07/19 13:55:07;;;;;;;2.90;1.57;;;13.70;99.90;;;;;;4997234;28;20219;-95
2021/07/19 13:57:43;;;;;;;2.30;1.50;;;13.70;99.90;;;;;;4996134;28;20202;-95
2021/07/19 14:00:24;;;;;;;3.10;1.50;;;13.70;99.90;;;;;;4994387;28;20219;-95
2021/07/19 14:02:55;;;;;;;2.63;1.23;;;13.80;99.90;;;;;;4993439;28;20218;-95
2021/07/19 14:05:27;;;;;;;4.07;1.50;;;13.90;99.90;;;;;;5009904;28;20228;-95
2021/07/19 14:07:58;;;;;;;3.23;1.40;;;13.90;99.90;;;;;;5004432;28;20222;-96
2021/07/19 14:10:34;;;;;;;3.93;1.80;;;13.90;99.90;;;;;;5004354;28;20238;-96
2021/07/19 14:13:06;;;;;;;4.43;1.80;;;14.00;99.90;;;;;;4993049;28;20210;-96
2021/07/19 14:15:41;;;;;;;2.77;1.33;;;14.00;99.90;;;;;;4989155;28;20632;-95
2021/07/19 14:18:14;;;;;;;4.90;1.73;;;14.00;99.90;;;;;;4989649;28;20261;-95